sensor_id;sensor_type;location;lat;lon;timestamp;temperature;humidity
8253;DHT22;61313;48.396;10.008;2022-10-26T00:02:17;13.50;99.90
8253;DHT22;61313;48.396;10.008;2022-10-26T00:04:43;13.50;99.90
8253;DHT22;61313;48.396;10.008;2022-10-26T00:07:09;13.50;99.90
8253;DHT22;61313;48.396;10.008;2022-10-26T00:09:34;13.50;99.90
8253;DHT22;61313;48.396;10.008;2022-10-26T00:12:00;13.50;99.90
8253;DHT22;61313;48.396;10.008;2022-10-26T00:14:26;13.50;99.90
8253;DHT22;61313;48.396;10.008;2022-10-26T00:16:52;13.50;99.90
8253;DHT22;61313;48.396;10.008;2022-10-26T00:19:18;13.50;99.90
8253;DHT22;61313;48.396;10.008;2022-10-26T00:21:43;13.60;99.90
8253;DHT22;61313;48.396;10.008;2022-10-26T00:24:12;13.60;99.90
8253;DHT22;61313;48.396;10.008;2022-10-26T00:26:38;13.60;99.90
8253;DHT22;61313;48.396;10.008;2022-10-26T00:29:05;13.60;99.90
8253;DHT22;61313;48.396;10.008;2022-10-26T00:31:30;13.70;99.90
8253;DHT22;61313;48.396;10.008;2022-10-26T00:33:56;13.60;99.90
8253;DHT22;61313;48.396;10.008;2022-10-26T00:36:23;13.60;99.90
8253;DHT22;61313;48.396;10.008;2022-10-26T00:38:50;13.60;99.90
8253;DHT22;61313;48.396;10.008;2022-10-26T00:41:23;13.60;99.90
8253;DHT22;61313;48.396;10.008;2022-10-26T00:43:50;13.60;99.90
8253;DHT22;61313;48.396;10.008;2022-10-26T00:46:36;13.70;99.90
8253;DHT22;61313;48.396;10.008;2022-10-26T00:49:15;13.70;99.90
8253;DHT22;61313;48.396;10.008;2022-10-26T00:51:49;13.70;99.90
8253;DHT22;61313;48.396;10.008;2022-10-26T00:54:17;13.70;99.90
8253;DHT22;61313;48.396;10.008;2022-10-26T00:56:45;13.70;85.60
8253;DHT22;61313;48.396;10.008;2022-10-26T00:59:13;13.80;99.90
8253;DHT22;61313;48.396;10.008;2022-10-26T01:01:42;13.70;99.90
8253;DHT22;61313;48.396;10.008;2022-10-26T01:04:09;13.70;99.90
8253;DHT22;61313;48.396;10.008;2022-10-26T01:06:35;13.70;99.90
8253;DHT22;61313;48.396;10.008;2022-10-26T01:09:02;13.70;99.90
8253;DHT22;61313;48.396;10.008;2022-10-26T01:11:29;13.50;99.90
8253;DHT22;61313;48.396;10.008;2022-10-26T01:13:56;13.40;99.90
8253;DHT22;61313;48.396;10.008;2022-10-26T01:35:18;13.20;1.00
8253;DHT22;61313;48.396;10.008;2022-10-26T01:37:59;13.30;1.00
8253;DHT22;61313;48.396;10.008;2022-10-26T01:41:02;13.30;1.00
8253;DHT22;61313;48.396;10.008;2022-10-26T01:43:27;13.40;1.00
8253;DHT22;61313;48.396;10.008;2022-10-26T01:45:53;13.40;1.00
8253;DHT22;61313;48.396;10.008;2022-10-26T01:48:22;13.30;1.00
8253;DHT22;61313;48.396;10.008;2022-10-26T01:50:51;13.10;1.00
8253;DHT22;61313;48.396;10.008;2022-10-26T01:53:18;13.10;1.00
8253;DHT22;61313;48.396;10.008;2022-10-26T02:01:11;12.90;1.00
8253;DHT22;61313;48.396;10.008;2022-10-26T02:03:45;12.90;1.00
8253;DHT22;61313;48.396;10.008;2022-10-26T02:06:18;12.80;1.00
8253;DHT22;61313;48.396;10.008;2022-10-26T02:11:50;12.90;1.00
8253;DHT22;61313;48.396;10.008;2022-10-26T02:14:36;12.80;1.00
8253;DHT22;61313;48.396;10.008;2022-10-26T02:19:57;12.80;1.00
8253;DHT22;61313;48.396;10.008;2022-10-26T02:22:35;12.80;1.00
8253;DHT22;61313;48.396;10.008;2022-10-26T02:25:11;12.90;1.00
8253;DHT22;61313;48.396;10.008;2022-10-26T02:27:42;12.80;1.00
8253;DHT22;61313;48.396;10.008;2022-10-26T02:30:10;12.90;1.00
8253;DHT22;61313;48.396;10.008;2022-10-26T02:32:41;13.00;1.00
8253;DHT22;61313;48.396;10.008;2022-10-26T02:35:12;13.10;1.00
8253;DHT22;61313;48.396;10.008;2022-10-26T02:37:40;13.10;1.00
8253;DHT22;61313;48.396;10.008;2022-10-26T02:40:10;13.20;1.00
8253;DHT22;61313;48.396;10.008;2022-10-26T02:42:40;13.20;1.00
8253;DHT22;61313;48.396;10.008;2022-10-26T02:45:13;13.20;1.00
8253;DHT22;61313;48.396;10.008;2022-10-26T02:47:41;13.20;1.00
8253;DHT22;61313;48.396;10.008;2022-10-26T02:50:07;13.00;1.00
8253;DHT22;61313;48.396;10.008;2022-10-26T02:52:59;12.80;1.00
8253;DHT22;61313;48.396;10.008;2022-10-26T02:55:33;12.70;1.00
8253;DHT22;61313;48.396;10.008;2022-10-26T02:58:04;12.80;1.00
8253;DHT22;61313;48.396;10.008;2022-10-26T03:00:31;12.80;1.00
8253;DHT22;61313;48.396;10.008;2022-10-26T03:02:58;12.90;1.00
8253;DHT22;61313;48.396;10.008;2022-10-26T03:05:27;13.00;1.00
8253;DHT22;61313;48.396;10.008;2022-10-26T03:07:54;13.10;1.00
8253;DHT22;61313;48.396;10.008;2022-10-26T03:10:21;12.80;1.00
8253;DHT22;61313;48.396;10.008;2022-10-26T03:12:47;12.80;1.00
8253;DHT22;61313;48.396;10.008;2022-10-26T03:15:12;12.80;1.00
8253;DHT22;61313;48.396;10.008;2022-10-26T03:17:38;12.90;1.00
8253;DHT22;61313;48.396;10.008;2022-10-26T03:20:04;13.10;1.00
8253;DHT22;61313;48.396;10.008;2022-10-26T03:22:30;13.10;1.00
8253;DHT22;61313;48.396;10.008;2022-10-26T03:24:56;13.20;1.00
8253;DHT22;61313;48.396;10.008;2022-10-26T03:27:21;13.20;1.00
8253;DHT22;61313;48.396;10.008;2022-10-26T03:29:47;13.10;1.00
8253;DHT22;61313;48.396;10.008;2022-10-26T03:32:13;13.10;1.00
8253;DHT22;61313;48.396;10.008;2022-10-26T03:34:39;13.20;1.00
8253;DHT22;61313;48.396;10.008;2022-10-26T03:37:04;13.20;1.00
8253;DHT22;61313;48.396;10.008;2022-10-26T03:39:30;13.20;1.00
8253;DHT22;61313;48.396;10.008;2022-10-26T03:41:56;13.10;1.00
8253;DHT22;61313;48.396;10.008;2022-10-26T03:44:22;13.10;1.00
8253;DHT22;61313;48.396;10.008;2022-10-26T03:46:47;13.20;1.00
8253;DHT22;61313;48.396;10.008;2022-10-26T03:49:13;13.20;1.00
8253;DHT22;61313;48.396;10.008;2022-10-26T03:51:39;13.20;1.00
8253;DHT22;61313;48.396;10.008;2022-10-26T03:54:05;13.30;1.00
8253;DHT22;61313;48.396;10.008;2022-10-26T03:56:31;13.30;1.00
8253;DHT22;61313;48.396;10.008;2022-10-26T03:58:57;13.20;1.00
8253;DHT22;61313;48.396;10.008;2022-10-26T04:01:22;13.20;1.00
8253;DHT22;61313;48.396;10.008;2022-10-26T04:03:48;13.20;1.00
8253;DHT22;61313;48.396;10.008;2022-10-26T04:06:14;13.00;1.00
8253;DHT22;61313;48.396;10.008;2022-10-26T04:08:39;13.10;1.00
8253;DHT22;61313;48.396;10.008;2022-10-26T04:11:05;13.20;1.00
8253;DHT22;61313;48.396;10.008;2022-10-26T04:13:31;13.10;1.00
8253;DHT22;61313;48.396;10.008;2022-10-26T04:15:57;13.20;1.00
8253;DHT22;61313;48.396;10.008;2022-10-26T04:18:23;13.20;1.00
8253;DHT22;61313;48.396;10.008;2022-10-26T04:20:49;13.20;1.00
8253;DHT22;61313;48.396;10.008;2022-10-26T04:23:16;13.20;1.00
8253;DHT22;61313;48.396;10.008;2022-10-26T04:25:42;13.20;1.00
8253;DHT22;61313;48.396;10.008;2022-10-26T04:28:09;13.20;1.00
8253;DHT22;61313;48.396;10.008;2022-10-26T04:30:36;13.20;1.00
8253;DHT22;61313;48.396;10.008;2022-10-26T04:33:03;13.20;1.00
8253;DHT22;61313;48.396;10.008;2022-10-26T04:35:29;13.30;1.00
8253;DHT22;61313;48.396;10.008;2022-10-26T04:38:03;13.30;1.00
8253;DHT22;61313;48.396;10.008;2022-10-26T04:40:30;13.20;1.00
8253;DHT22;61313;48.396;10.008;2022-10-26T04:42:56;13.20;1.00
8253;DHT22;61313;48.396;10.008;2022-10-26T04:45:22;12.90;1.00
8253;DHT22;61313;48.396;10.008;2022-10-26T04:48:04;12.90;1.00
8253;DHT22;61313;48.396;10.008;2022-10-26T04:50:31;13.00;1.00
8253;DHT22;61313;48.396;10.008;2022-10-26T04:52:56;13.00;1.00
8253;DHT22;61313;48.396;10.008;2022-10-26T04:55:22;13.10;1.00
8253;DHT22;61313;48.396;10.008;2022-10-26T04:57:48;13.20;1.00
8253;DHT22;61313;48.396;10.008;2022-10-26T05:00:14;13.20;1.00
8253;DHT22;61313;48.396;10.008;2022-10-26T05:02:39;13.20;1.00
8253;DHT22;61313;48.396;10.008;2022-10-26T05:05:05;13.20;1.00
8253;DHT22;61313;48.396;10.008;2022-10-26T05:07:31;13.00;1.00
8253;DHT22;61313;48.396;10.008;2022-10-26T05:09:57;13.00;1.00
8253;DHT22;61313;48.396;10.008;2022-10-26T05:12:22;13.00;1.00
8253;DHT22;61313;48.396;10.008;2022-10-26T05:14:50;13.10;1.00
8253;DHT22;61313;48.396;10.008;2022-10-26T05:17:16;13.00;1.00
8253;DHT22;61313;48.396;10.008;2022-10-26T05:19:41;13.00;1.00
8253;DHT22;61313;48.396;10.008;2022-10-26T05:22:07;13.00;1.00
8253;DHT22;61313;48.396;10.008;2022-10-26T05:24:33;13.10;1.00
8253;DHT22;61313;48.396;10.008;2022-10-26T05:26:59;13.20;1.00
8253;DHT22;61313;48.396;10.008;2022-10-26T05:29:25;13.20;1.00
8253;DHT22;61313;48.396;10.008;2022-10-26T05:31:50;13.00;1.00
8253;DHT22;61313;48.396;10.008;2022-10-26T05:34:16;12.90;1.00
8253;DHT22;61313;48.396;10.008;2022-10-26T05:36:42;13.00;1.00
8253;DHT22;61313;48.396;10.008;2022-10-26T05:39:07;13.00;1.00
8253;DHT22;61313;48.396;10.008;2022-10-26T05:41:33;12.80;1.00
8253;DHT22;61313;48.396;10.008;2022-10-26T05:43:59;12.90;1.00
8253;DHT22;61313;48.396;10.008;2022-10-26T05:46:24;12.90;1.00
8253;DHT22;61313;48.396;10.008;2022-10-26T05:48:50;13.00;1.00
8253;DHT22;61313;48.396;10.008;2022-10-26T05:51:16;13.00;1.00
8253;DHT22;61313;48.396;10.008;2022-10-26T05:53:41;13.00;1.00
8253;DHT22;61313;48.396;10.008;2022-10-26T05:56:37;13.10;1.00
8253;DHT22;61313;48.396;10.008;2022-10-26T05:59:14;13.10;1.00
8253;DHT22;61313;48.396;10.008;2022-10-26T06:04:36;12.90;1.00
8253;DHT22;61313;48.396;10.008;2022-10-26T06:07:10;13.00;1.00
8253;DHT22;61313;48.396;10.008;2022-10-26T06:09:38;13.10;1.00
8253;DHT22;61313;48.396;10.008;2022-10-26T06:12:04;13.20;1.00
8253;DHT22;61313;48.396;10.008;2022-10-26T06:14:30;13.20;1.00
8253;DHT22;61313;48.396;10.008;2022-10-26T06:30:27;13.10;1.00
8253;DHT22;61313;48.396;10.008;2022-10-26T06:32:52;13.20;1.00
8253;DHT22;61313;48.396;10.008;2022-10-26T06:38:01;13.40;1.00
8253;DHT22;61313;48.396;10.008;2022-10-26T06:40:30;13.40;1.00
8253;DHT22;61313;48.396;10.008;2022-10-26T06:42:57;13.40;1.00
8253;DHT22;61313;48.396;10.008;2022-10-26T06:45:24;13.40;1.00
8253;DHT22;61313;48.396;10.008;2022-10-26T06:48:09;13.50;1.00
8253;DHT22;61313;48.396;10.008;2022-10-26T06:50:52;13.50;1.00
8253;DHT22;61313;48.396;10.008;2022-10-26T06:53:42;13.60;1.00
8253;DHT22;61313;48.396;10.008;2022-10-26T06:56:13;13.70;1.00
8253;DHT22;61313;48.396;10.008;2022-10-26T06:58:39;13.70;1.00
8253;DHT22;61313;48.396;10.008;2022-10-26T07:01:06;13.80;1.00
8253;DHT22;61313;48.396;10.008;2022-10-26T07:03:35;14.60;1.00
8253;DHT22;61313;48.396;10.008;2022-10-26T07:06:00;16.30;1.00
8253;DHT22;61313;48.396;10.008;2022-10-26T07:08:26;18.10;99.90
8253;DHT22;61313;48.396;10.008;2022-10-26T07:10:52;18.80;99.90
8253;DHT22;61313;48.396;10.008;2022-10-26T07:13:17;18.90;1.30
8253;DHT22;61313;48.396;10.008;2022-10-26T07:15:43;18.60;1.00
8253;DHT22;61313;48.396;10.008;2022-10-26T07:18:09;17.90;30.30
8253;DHT22;61313;48.396;10.008;2022-10-26T07:20:37;17.10;99.90
8253;DHT22;61313;48.396;10.008;2022-10-26T07:23:04;16.30;48.00
8253;DHT22;61313;48.396;10.008;2022-10-26T07:25:31;15.80;1.00
8253;DHT22;61313;48.396;10.008;2022-10-26T07:27:58;15.40;99.90
8253;DHT22;61313;48.396;10.008;2022-10-26T07:30:25;15.20;1.00
8253;DHT22;61313;48.396;10.008;2022-10-26T07:33:08;14.90;99.90
8253;DHT22;61313;48.396;10.008;2022-10-26T07:35:34;14.80;99.90
8253;DHT22;61313;48.396;10.008;2022-10-26T07:38:00;14.70;1.00
8253;DHT22;61313;48.396;10.008;2022-10-26T07:40:26;14.70;1.00
8253;DHT22;61313;48.396;10.008;2022-10-26T07:42:56;14.70;1.00
8253;DHT22;61313;48.396;10.008;2022-10-26T07:45:21;14.70;1.00
8253;DHT22;61313;48.396;10.008;2022-10-26T07:47:48;14.80;1.00
8253;DHT22;61313;48.396;10.008;2022-10-26T07:50:14;14.90;1.00
8253;DHT22;61313;48.396;10.008;2022-10-26T07:52:40;14.90;99.90
8253;DHT22;61313;48.396;10.008;2022-10-26T07:55:07;15.00;99.90
8253;DHT22;61313;48.396;10.008;2022-10-26T07:57:33;15.00;99.90
8253;DHT22;61313;48.396;10.008;2022-10-26T07:59:59;14.90;99.90
8253;DHT22;61313;48.396;10.008;2022-10-26T08:02:25;15.00;99.90
8253;DHT22;61313;48.396;10.008;2022-10-26T08:04:50;15.00;99.90
8253;DHT22;61313;48.396;10.008;2022-10-26T08:07:17;15.00;1.00
8253;DHT22;61313;48.396;10.008;2022-10-26T08:09:42;15.00;1.00
8253;DHT22;61313;48.396;10.008;2022-10-26T08:12:08;15.00;1.00
8253;DHT22;61313;48.396;10.008;2022-10-26T08:14:34;15.10;1.00
8253;DHT22;61313;48.396;10.008;2022-10-26T08:16:59;15.60;99.90
8253;DHT22;61313;48.396;10.008;2022-10-26T08:19:25;16.20;1.00
8253;DHT22;61313;48.396;10.008;2022-10-26T08:21:51;16.60;1.00
8253;DHT22;61313;48.396;10.008;2022-10-26T08:24:16;17.30;1.00
8253;DHT22;61313;48.396;10.008;2022-10-26T08:26:42;18.40;1.00
8253;DHT22;61313;48.396;10.008;2022-10-26T08:29:08;18.40;1.00
8253;DHT22;61313;48.396;10.008;2022-10-26T08:31:33;18.00;1.00
8253;DHT22;61313;48.396;10.008;2022-10-26T08:33:59;17.60;1.00
8253;DHT22;61313;48.396;10.008;2022-10-26T08:36:27;17.30;99.90
8253;DHT22;61313;48.396;10.008;2022-10-26T08:38:52;17.00;1.00
8253;DHT22;61313;48.396;10.008;2022-10-26T08:42:00;16.90;99.90
8253;DHT22;61313;48.396;10.008;2022-10-26T08:44:28;16.70;1.00
8253;DHT22;61313;48.396;10.008;2022-10-26T08:49:47;16.40;99.90
8253;DHT22;61313;48.396;10.008;2022-10-26T08:52:16;16.40;1.00
8253;DHT22;61313;48.396;10.008;2022-10-26T08:54:49;16.40;1.00
8253;DHT22;61313;48.396;10.008;2022-10-26T08:57:38;16.40;1.00
8253;DHT22;61313;48.396;10.008;2022-10-26T09:00:14;16.40;1.00
8253;DHT22;61313;48.396;10.008;2022-10-26T09:02:40;16.40;1.00
8253;DHT22;61313;48.396;10.008;2022-10-26T09:05:17;16.40;1.00
8253;DHT22;61313;48.396;10.008;2022-10-26T09:13:52;16.30;84.40
8253;DHT22;61313;48.396;10.008;2022-10-26T09:16:46;16.30;99.90
8253;DHT22;61313;48.396;10.008;2022-10-26T09:22:09;16.20;1.00
8253;DHT22;61313;48.396;10.008;2022-10-26T09:24:56;16.20;1.00
8253;DHT22;61313;48.396;10.008;2022-10-26T09:27:27;16.20;1.00
8253;DHT22;61313;48.396;10.008;2022-10-26T09:30:05;16.20;1.00
8253;DHT22;61313;48.396;10.008;2022-10-26T09:32:41;16.10;1.00
8253;DHT22;61313;48.396;10.008;2022-10-26T09:35:15;16.20;1.00
8253;DHT22;61313;48.396;10.008;2022-10-26T09:37:50;16.10;99.90
8253;DHT22;61313;48.396;10.008;2022-10-26T09:40:22;16.10;99.90
8253;DHT22;61313;48.396;10.008;2022-10-26T09:45:37;16.30;99.90
8253;DHT22;61313;48.396;10.008;2022-10-26T09:48:17;16.40;99.90
8253;DHT22;61313;48.396;10.008;2022-10-26T09:50:47;16.60;1.00
8253;DHT22;61313;48.396;10.008;2022-10-26T09:53:13;16.70;1.00
8253;DHT22;61313;48.396;10.008;2022-10-26T09:55:45;16.80;1.00
8253;DHT22;61313;48.396;10.008;2022-10-26T09:58:26;16.90;1.00
8253;DHT22;61313;48.396;10.008;2022-10-26T10:00:53;16.90;1.00
8253;DHT22;61313;48.396;10.008;2022-10-26T10:03:24;17.00;1.00
8253;DHT22;61313;48.396;10.008;2022-10-26T10:05:51;17.00;1.00
8253;DHT22;61313;48.396;10.008;2022-10-26T10:08:20;17.10;99.90
8253;DHT22;61313;48.396;10.008;2022-10-26T10:13:20;17.10;1.00
8253;DHT22;61313;48.396;10.008;2022-10-26T10:18:37;17.20;1.00
8253;DHT22;61313;48.396;10.008;2022-10-26T10:21:05;17.30;1.00
8253;DHT22;61313;48.396;10.008;2022-10-26T10:23:51;17.40;1.00
8253;DHT22;61313;48.396;10.008;2022-10-26T10:26:17;17.40;1.00
8253;DHT22;61313;48.396;10.008;2022-10-26T10:28:58;17.40;1.00
8253;DHT22;61313;48.396;10.008;2022-10-26T10:31:32;17.40;1.00
8253;DHT22;61313;48.396;10.008;2022-10-26T10:33:58;17.30;99.90
8253;DHT22;61313;48.396;10.008;2022-10-26T10:36:27;17.30;1.00
8253;DHT22;61313;48.396;10.008;2022-10-26T10:38:54;17.30;1.00
8253;DHT22;61313;48.396;10.008;2022-10-26T10:41:29;17.40;1.00
8253;DHT22;61313;48.396;10.008;2022-10-26T10:44:20;17.40;99.90
8253;DHT22;61313;48.396;10.008;2022-10-26T10:46:47;17.50;99.90
8253;DHT22;61313;48.396;10.008;2022-10-26T10:49:20;17.50;32.60
8253;DHT22;61313;48.396;10.008;2022-10-26T10:51:48;17.50;33.00
8253;DHT22;61313;48.396;10.008;2022-10-26T10:56:54;17.60;1.00
8253;DHT22;61313;48.396;10.008;2022-10-26T11:07:13;17.70;1.00
8253;DHT22;61313;48.396;10.008;2022-10-26T11:09:42;17.70;16.80
8253;DHT22;61313;48.396;10.008;2022-10-26T11:12:25;17.70;73.20
8253;DHT22;61313;48.396;10.008;2022-10-26T11:15:06;17.90;1.00
8253;DHT22;61313;48.396;10.008;2022-10-26T11:20:15;17.90;99.90
8253;DHT22;61313;48.396;10.008;2022-10-26T11:23:03;18.00;99.90
8253;DHT22;61313;48.396;10.008;2022-10-26T11:25:43;17.90;1.00
8253;DHT22;61313;48.396;10.008;2022-10-26T11:31:14;18.20;99.90
8253;DHT22;61313;48.396;10.008;2022-10-26T11:33:45;18.50;1.00
8253;DHT22;61313;48.396;10.008;2022-10-26T11:36:16;18.80;99.90
8253;DHT22;61313;48.396;10.008;2022-10-26T11:38:54;19.20;1.00
8253;DHT22;61313;48.396;10.008;2022-10-26T11:41:37;19.50;99.90
8253;DHT22;61313;48.396;10.008;2022-10-26T11:44:31;19.60;26.70
8253;DHT22;61313;48.396;10.008;2022-10-26T11:47:11;19.80;1.00
8253;DHT22;61313;48.396;10.008;2022-10-26T11:49:53;19.80;1.00
8253;DHT22;61313;48.396;10.008;2022-10-26T11:52:28;19.80;1.00
8253;DHT22;61313;48.396;10.008;2022-10-26T11:54:58;19.80;1.00
8253;DHT22;61313;48.396;10.008;2022-10-26T11:57:27;19.90;1.00
8253;DHT22;61313;48.396;10.008;2022-10-26T12:00:02;20.00;1.00
8253;DHT22;61313;48.396;10.008;2022-10-26T12:02:28;19.90;99.90
8253;DHT22;61313;48.396;10.008;2022-10-26T12:07:39;20.00;99.90
8253;DHT22;61313;48.396;10.008;2022-10-26T12:10:30;20.10;99.90
8253;DHT22;61313;48.396;10.008;2022-10-26T12:13:26;20.20;99.90
8253;DHT22;61313;48.396;10.008;2022-10-26T12:18:50;20.20;99.80
8253;DHT22;61313;48.396;10.008;2022-10-26T12:21:19;20.20;99.90
8253;DHT22;61313;48.396;10.008;2022-10-26T12:23:55;20.30;11.80
8253;DHT22;61313;48.396;10.008;2022-10-26T12:39:41;19.80;29.70
8253;DHT22;61313;48.396;10.008;2022-10-26T12:44:36;19.60;99.90
8253;DHT22;61313;48.396;10.008;2022-10-26T12:47:03;19.60;99.90
8253;DHT22;61313;48.396;10.008;2022-10-26T12:52:51;19.60;99.90
8253;DHT22;61313;48.396;10.008;2022-10-26T13:09:20;19.80;99.90
8253;DHT22;61313;48.396;10.008;2022-10-26T13:11:48;19.90;99.90
8253;DHT22;61313;48.396;10.008;2022-10-26T13:14:38;19.90;64.10
8253;DHT22;61313;48.396;10.008;2022-10-26T13:17:16;20.00;1.00
8253;DHT22;61313;48.396;10.008;2022-10-26T13:19:47;20.10;1.00
8253;DHT22;61313;48.396;10.008;2022-10-26T13:22:14;20.20;1.00
8253;DHT22;61313;48.396;10.008;2022-10-26T13:24:51;20.20;1.00
8253;DHT22;61313;48.396;10.008;2022-10-26T13:32:35;20.00;1.00
8253;DHT22;61313;48.396;10.008;2022-10-26T13:35:02;19.90;1.00
8253;DHT22;61313;48.396;10.008;2022-10-26T13:37:31;19.90;1.00
8253;DHT22;61313;48.396;10.008;2022-10-26T13:39:59;19.90;1.00
8253;DHT22;61313;48.396;10.008;2022-10-26T13:42:44;19.80;1.00
8253;DHT22;61313;48.396;10.008;2022-10-26T13:45:26;19.80;1.00
8253;DHT22;61313;48.396;10.008;2022-10-26T13:48:09;19.80;1.00
8253;DHT22;61313;48.396;10.008;2022-10-26T13:50:58;19.80;7.80
8253;DHT22;61313;48.396;10.008;2022-10-26T13:53:49;19.80;27.10
8253;DHT22;61313;48.396;10.008;2022-10-26T13:56:29;19.80;22.00
8253;DHT22;61313;48.396;10.008;2022-10-26T13:59:02;19.90;1.00
8253;DHT22;61313;48.396;10.008;2022-10-26T14:01:29;20.00;1.00
8253;DHT22;61313;48.396;10.008;2022-10-26T14:03:55;20.10;1.00
8253;DHT22;61313;48.396;10.008;2022-10-26T14:06:31;20.20;1.00
8253;DHT22;61313;48.396;10.008;2022-10-26T14:09:02;20.20;1.00
8253;DHT22;61313;48.396;10.008;2022-10-26T14:11:35;20.20;1.00
8253;DHT22;61313;48.396;10.008;2022-10-26T14:14:02;20.20;1.00
8253;DHT22;61313;48.396;10.008;2022-10-26T14:16:31;20.10;1.00
8253;DHT22;61313;48.396;10.008;2022-10-26T14:18:58;20.10;1.00
8253;DHT22;61313;48.396;10.008;2022-10-26T14:21:24;20.20;1.00
8253;DHT22;61313;48.396;10.008;2022-10-26T14:23:56;20.30;1.00
8253;DHT22;61313;48.396;10.008;2022-10-26T14:26:39;20.30;1.00
8253;DHT22;61313;48.396;10.008;2022-10-26T14:29:14;20.30;1.00
8253;DHT22;61313;48.396;10.008;2022-10-26T14:31:41;20.20;1.00
8253;DHT22;61313;48.396;10.008;2022-10-26T14:34:09;20.10;1.00
8253;DHT22;61313;48.396;10.008;2022-10-26T14:36:48;20.10;1.00
8253;DHT22;61313;48.396;10.008;2022-10-26T14:41:48;20.00;1.00
8253;DHT22;61313;48.396;10.008;2022-10-26T14:44:19;20.00;1.00
8253;DHT22;61313;48.396;10.008;2022-10-26T14:46:45;20.00;1.00
8253;DHT22;61313;48.396;10.008;2022-10-26T14:49:25;20.00;1.00
8253;DHT22;61313;48.396;10.008;2022-10-26T14:51:58;20.00;1.00
8253;DHT22;61313;48.396;10.008;2022-10-26T14:54:26;20.00;1.00
8253;DHT22;61313;48.396;10.008;2022-10-26T14:56:53;20.00;1.00
8253;DHT22;61313;48.396;10.008;2022-10-26T14:59:24;20.00;1.00
8253;DHT22;61313;48.396;10.008;2022-10-26T15:07:21;19.90;18.80
8253;DHT22;61313;48.396;10.008;2022-10-26T15:09:50;19.90;39.40
8253;DHT22;61313;48.396;10.008;2022-10-26T15:12:28;19.80;88.50
8253;DHT22;61313;48.396;10.008;2022-10-26T15:14:55;19.70;99.90
8253;DHT22;61313;48.396;10.008;2022-10-26T15:17:32;19.70;99.90
8253;DHT22;61313;48.396;10.008;2022-10-26T15:20:05;19.60;99.90
8253;DHT22;61313;48.396;10.008;2022-10-26T15:22:32;19.60;99.90
8253;DHT22;61313;48.396;10.008;2022-10-26T15:25:01;19.50;99.90
8253;DHT22;61313;48.396;10.008;2022-10-26T15:27:28;19.50;99.90
8253;DHT22;61313;48.396;10.008;2022-10-26T15:30:27;19.50;99.90
8253;DHT22;61313;48.396;10.008;2022-10-26T15:32:53;19.50;99.90
8253;DHT22;61313;48.396;10.008;2022-10-26T15:35:28;19.40;99.90
8253;DHT22;61313;48.396;10.008;2022-10-26T15:37:55;19.40;99.90
8253;DHT22;61313;48.396;10.008;2022-10-26T15:40:23;19.30;99.90
8253;DHT22;61313;48.396;10.008;2022-10-26T15:42:53;19.30;99.90
8253;DHT22;61313;48.396;10.008;2022-10-26T15:46:05;19.30;99.90
8253;DHT22;61313;48.396;10.008;2022-10-26T15:48:24;19.20;99.90
8253;DHT22;61313;48.396;10.008;2022-10-26T15:50:53;19.20;99.90
8253;DHT22;61313;48.396;10.008;2022-10-26T15:53:21;19.10;1.00
8253;DHT22;61313;48.396;10.008;2022-10-26T15:55:50;19.00;1.00
8253;DHT22;61313;48.396;10.008;2022-10-26T15:58:16;19.00;1.00
8253;DHT22;61313;48.396;10.008;2022-10-26T16:00:42;19.00;1.00
8253;DHT22;61313;48.396;10.008;2022-10-26T16:03:19;18.90;1.00
8253;DHT22;61313;48.396;10.008;2022-10-26T16:05:46;18.90;99.90
8253;DHT22;61313;48.396;10.008;2022-10-26T16:08:15;18.80;99.90
8253;DHT22;61313;48.396;10.008;2022-10-26T16:10:42;18.70;99.90
8253;DHT22;61313;48.396;10.008;2022-10-26T16:13:14;18.70;1.00
8253;DHT22;61313;48.396;10.008;2022-10-26T16:15:40;18.60;1.00
8253;DHT22;61313;48.396;10.008;2022-10-26T16:18:06;18.60;1.00
8253;DHT22;61313;48.396;10.008;2022-10-26T16:20:32;18.50;93.20
8253;DHT22;61313;48.396;10.008;2022-10-26T16:22:58;18.50;99.90
8253;DHT22;61313;48.396;10.008;2022-10-26T16:25:31;18.50;99.90
8253;DHT22;61313;48.396;10.008;2022-10-26T16:27:57;18.40;1.00
8253;DHT22;61313;48.396;10.008;2022-10-26T16:30:22;18.40;1.00
8253;DHT22;61313;48.396;10.008;2022-10-26T16:32:48;18.40;1.00
8253;DHT22;61313;48.396;10.008;2022-10-26T16:35:14;18.30;1.00
8253;DHT22;61313;48.396;10.008;2022-10-26T16:37:40;18.30;99.90
8253;DHT22;61313;48.396;10.008;2022-10-26T16:40:07;18.20;99.90
8253;DHT22;61313;48.396;10.008;2022-10-26T16:42:33;18.20;1.00
8253;DHT22;61313;48.396;10.008;2022-10-26T16:44:59;18.20;1.00
8253;DHT22;61313;48.396;10.008;2022-10-26T16:47:25;18.20;99.90
8253;DHT22;61313;48.396;10.008;2022-10-26T16:49:51;18.10;99.90
8253;DHT22;61313;48.396;10.008;2022-10-26T16:52:16;18.10;1.00
8253;DHT22;61313;48.396;10.008;2022-10-26T16:54:42;18.10;1.00
8253;DHT22;61313;48.396;10.008;2022-10-26T16:57:08;18.10;1.00
8253;DHT22;61313;48.396;10.008;2022-10-26T16:59:34;18.10;1.00
8253;DHT22;61313;48.396;10.008;2022-10-26T17:01:59;18.10;99.90
8253;DHT22;61313;48.396;10.008;2022-10-26T17:04:25;18.10;99.90
8253;DHT22;61313;48.396;10.008;2022-10-26T17:06:51;18.10;99.90
8253;DHT22;61313;48.396;10.008;2022-10-26T17:09:16;18.10;99.90
8253;DHT22;61313;48.396;10.008;2022-10-26T17:11:42;18.00;1.00
8253;DHT22;61313;48.396;10.008;2022-10-26T17:14:08;17.90;1.00
8253;DHT22;61313;48.396;10.008;2022-10-26T17:16:33;17.90;1.00
8253;DHT22;61313;48.396;10.008;2022-10-26T17:18:59;17.90;1.00
8253;DHT22;61313;48.396;10.008;2022-10-26T17:21:30;17.80;1.00
8253;DHT22;61313;48.396;10.008;2022-10-26T17:23:57;17.50;99.90
8253;DHT22;61313;48.396;10.008;2022-10-26T17:26:23;17.40;99.90
8253;DHT22;61313;48.396;10.008;2022-10-26T17:28:52;17.40;99.90
8253;DHT22;61313;48.396;10.008;2022-10-26T17:31:18;17.40;99.90
8253;DHT22;61313;48.396;10.008;2022-10-26T17:33:45;17.40;99.90
8253;DHT22;61313;48.396;10.008;2022-10-26T17:36:15;17.50;99.90
8253;DHT22;61313;48.396;10.008;2022-10-26T17:38:42;17.40;99.90
8253;DHT22;61313;48.396;10.008;2022-10-26T17:41:12;17.40;99.90
8253;DHT22;61313;48.396;10.008;2022-10-26T17:43:39;17.40;99.90
8253;DHT22;61313;48.396;10.008;2022-10-26T17:46:08;17.40;99.90
8253;DHT22;61313;48.396;10.008;2022-10-26T17:48:34;17.40;99.90
8253;DHT22;61313;48.396;10.008;2022-10-26T17:51:02;17.30;99.90
8253;DHT22;61313;48.396;10.008;2022-10-26T17:53:29;17.30;99.90
8253;DHT22;61313;48.396;10.008;2022-10-26T17:58:29;17.30;1.00
8253;DHT22;61313;48.396;10.008;2022-10-26T18:00:58;17.20;1.00
8253;DHT22;61313;48.396;10.008;2022-10-26T18:03:24;17.20;1.00
8253;DHT22;61313;48.396;10.008;2022-10-26T18:05:50;17.20;1.00
8253;DHT22;61313;48.396;10.008;2022-10-26T18:08:17;17.20;1.00
8253;DHT22;61313;48.396;10.008;2022-10-26T18:10:49;17.20;1.00
8253;DHT22;61313;48.396;10.008;2022-10-26T18:13:15;17.20;1.00
8253;DHT22;61313;48.396;10.008;2022-10-26T18:15:41;17.20;1.00
8253;DHT22;61313;48.396;10.008;2022-10-26T18:18:07;17.10;1.00